sensor_id;sensor_type;location;lat;lon;timestamp;pressure;altitude;pressure_sealevel;temperature
24740;BMP280;45234;48.148;17.128;2023-03-29T00:02:07;100796.47;;;2.56
24740;BMP280;45234;48.148;17.128;2023-03-29T00:04:35;100792.47;;;2.52
24740;BMP280;45234;48.148;17.128;2023-03-29T00:07:02;100787.59;;;2.49
24740;BMP280;45234;48.148;17.128;2023-03-29T00:09:31;100782.00;;;2.44
24740;BMP280;45234;48.148;17.128;2023-03-29T00:12:02;100784.66;;;2.43
24740;BMP280;45234;48.148;17.128;2023-03-29T00:14:29;100788.75;;;2.45
24740;BMP280;45234;48.148;17.128;2023-03-29T00:16:57;100788.53;;;2.48
24740;BMP280;45234;48.148;17.128;2023-03-29T00:19:24;100794.34;;;2.50
24740;BMP280;45234;48.148;17.128;2023-03-29T00:21:51;100796.09;;;2.50
24740;BMP280;45234;48.148;17.128;2023-03-29T00:24:18;100791.31;;;2.45
24740;BMP280;45234;48.148;17.128;2023-03-29T00:26:47;100800.63;;;2.46
24740;BMP280;45234;48.148;17.128;2023-03-29T00:29:15;100797.34;;;2.44
24740;BMP280;45234;48.148;17.128;2023-03-29T00:31:42;100791.41;;;2.44
24740;BMP280;45234;48.148;17.128;2023-03-29T00:34:11;100797.72;;;2.51
24740;BMP280;45234;48.148;17.128;2023-03-29T00:36:38;100796.91;;;2.50
24740;BMP280;45234;48.148;17.128;2023-03-29T00:39:05;100790.16;;;2.49
24740;BMP280;45234;48.148;17.128;2023-03-29T00:41:34;100788.53;;;2.48
24740;BMP280;45234;48.148;17.128;2023-03-29T00:44:03;100791.41;;;2.44
24740;BMP280;45234;48.148;17.128;2023-03-29T00:46:30;100788.97;;;2.42
24740;BMP280;45234;48.148;17.128;2023-03-29T00:49:09;100785.97;;;2.37
24740;BMP280;45234;48.148;17.128;2023-03-29T00:51:39;100788.28;;;2.40
24740;BMP280;45234;48.148;17.128;2023-03-29T00:54:09;100783.97;;;2.41
24740;BMP280;45234;48.148;17.128;2023-03-29T00:56:43;100778.75;;;2.42
24740;BMP280;45234;48.148;17.128;2023-03-29T00:59:16;100780.59;;;2.40
24740;BMP280;45234;48.148;17.128;2023-03-29T01:01:49;100781.19;;;2.44
24740;BMP280;45234;48.148;17.128;2023-03-29T01:04:44;100782.34;;;2.40
24740;BMP280;45234;48.148;17.128;2023-03-29T01:07:21;100776.53;;;2.38
24740;BMP280;45234;48.148;17.128;2023-03-29T01:09:54;100786.88;;;2.36
24740;BMP280;45234;48.148;17.128;2023-03-29T01:12:28;100771.41;;;2.38
24740;BMP280;45234;48.148;17.128;2023-03-29T01:15:04;100769.78;;;2.36
24740;BMP280;45234;48.148;17.128;2023-03-29T01:17:32;100771.53;;;2.36
24740;BMP280;45234;48.148;17.128;2023-03-29T01:20:11;100765.72;;;2.34
24740;BMP280;45234;48.148;17.128;2023-03-29T01:25:12;100755.69;;;2.31
24740;BMP280;45234;48.148;17.128;2023-03-29T01:27:50;100772.69;;;2.32
24740;BMP280;45234;48.148;17.128;2023-03-29T01:30:52;100769.44;;;2.30
24740;BMP280;45234;48.148;17.128;2023-03-29T01:33:25;100764.88;;;2.33
24740;BMP280;45234;48.148;17.128;2023-03-29T01:35:59;100774.31;;;2.33
24740;BMP280;45234;48.148;17.128;2023-03-29T01:38:33;100762.25;;;2.24
24740;BMP280;45234;48.148;17.128;2023-03-29T01:41:01;100759.47;;;2.27
24740;BMP280;45234;48.148;17.128;2023-03-29T01:46:38;100757.84;;;2.26
24740;BMP280;45234;48.148;17.128;2023-03-29T01:49:38;100759.91;;;2.21
24740;BMP280;45234;48.148;17.128;2023-03-29T01:52:17;100755.59;;;2.21
24740;BMP280;45234;48.148;17.128;2023-03-29T01:55:11;100758.28;;;2.20
24740;BMP280;45234;48.148;17.128;2023-03-29T01:57:42;100753.78;;;2.23
24740;BMP280;45234;48.148;17.128;2023-03-29T02:00:14;100749.22;;;2.27
24740;BMP280;45234;48.148;17.128;2023-03-29T02:02:42;100751.56;;;2.30
24740;BMP280;45234;48.148;17.128;2023-03-29T02:05:13;100753.84;;;2.33
24740;BMP280;45234;48.148;17.128;2023-03-29T02:07:42;100755.97;;;2.28
24740;BMP280;45234;48.148;17.128;2023-03-29T02:10:10;100751.91;;;2.25
24740;BMP280;45234;48.148;17.128;2023-03-29T02:12:38;100750.72;;;2.18
24740;BMP280;45234;48.148;17.128;2023-03-29T02:15:11;100747.09;;;2.10
24740;BMP280;45234;48.148;17.128;2023-03-29T02:17:38;100741.97;;;2.10
24740;BMP280;45234;48.148;17.128;2023-03-29T02:20:11;100741.50;;;2.04
24740;BMP280;45234;48.148;17.128;2023-03-29T02:23:12;100735.78;;;2.01
24740;BMP280;45234;48.148;17.128;2023-03-29T02:25:37;100733.81;;;1.82
24740;BMP280;45234;48.148;17.128;2023-03-29T02:28:05;100736.97;;;1.97
24740;BMP280;45234;48.148;17.128;2023-03-29T02:31:04;100735.56;;;1.93
24740;BMP280;45234;48.148;17.128;2023-03-29T02:34:04;100733.09;;;1.91
24740;BMP280;45234;48.148;17.128;2023-03-29T02:36:36;100735.56;;;1.93
24740;BMP280;45234;48.148;17.128;2023-03-29T02:39:09;100728.38;;;1.87
24740;BMP280;45234;48.148;17.128;2023-03-29T02:41:40;100724.03;;;1.87
24740;BMP280;45234;48.148;17.128;2023-03-29T02:44:18;100724.84;;;1.88
24740;BMP280;45234;48.148;17.128;2023-03-29T02:46:50;100731.84;;;1.86
24740;BMP280;45234;48.148;17.128;2023-03-29T02:49:19;100722.44;;;1.86
24740;BMP280;45234;48.148;17.128;2023-03-29T02:51:49;100728.47;;;1.85
24740;BMP280;45234;48.148;17.128;2023-03-29T02:54:21;100722.69;;;1.83
24740;BMP280;45234;48.148;17.128;2023-03-29T02:56:59;100722.69;;;1.83
24740;BMP280;45234;48.148;17.128;2023-03-29T02:59:26;100744.03;;;1.82
24740;BMP280;45234;48.148;17.128;2023-03-29T03:01:55;100730.34;;;1.83
24740;BMP280;45234;48.148;17.128;2023-03-29T03:04:23;100725.22;;;1.83
24740;BMP280;45234;48.148;17.128;2023-03-29T03:06:51;100725.91;;;1.85
24740;BMP280;45234;48.148;17.128;2023-03-29T03:09:18;100727.28;;;1.89
24740;BMP280;45234;48.148;17.128;2023-03-29T03:11:46;100738.22;;;1.91
24740;BMP280;45234;48.148;17.128;2023-03-29T03:14:13;100739.94;;;1.91
24740;BMP280;45234;48.148;17.128;2023-03-29T03:16:42;100739.94;;;1.91
24740;BMP280;45234;48.148;17.128;2023-03-29T03:19:09;100737.31;;;1.92
24740;BMP280;45234;48.148;17.128;2023-03-29T03:21:36;100739.88;;;1.92
24740;BMP280;45234;48.148;17.128;2023-03-29T03:24:03;100741.38;;;1.95
24740;BMP280;45234;48.148;17.128;2023-03-29T03:26:31;100748.00;;;1.97
24740;BMP280;45234;48.148;17.128;2023-03-29T03:28:58;100743.81;;;1.96
24740;BMP280;45234;48.148;17.128;2023-03-29T03:31:44;100745.78;;;1.93
24740;BMP280;45234;48.148;17.128;2023-03-29T03:34:30;100744.38;;;1.89
24740;BMP280;45234;48.148;17.128;2023-03-29T03:36:59;100739.50;;;1.86
24740;BMP280;45234;48.148;17.128;2023-03-29T03:39:30;100751.59;;;1.84
24740;BMP280;45234;48.148;17.128;2023-03-29T03:41:59;100735.44;;;1.83
24740;BMP280;45234;48.148;17.128;2023-03-29T03:44:27;100740.44;;;1.85
24740;BMP280;45234;48.148;17.128;2023-03-29T03:47:12;100745.19;;;1.89
24740;BMP280;45234;48.148;17.128;2023-03-29T03:49:41;100747.19;;;1.97
24740;BMP280;45234;48.148;17.128;2023-03-29T03:52:08;100740.72;;;2.04
24740;BMP280;45234;48.148;17.128;2023-03-29T03:54:36;100735.25;;;2.09
24740;BMP280;45234;48.148;17.128;2023-03-29T03:57:24;100732.94;;;2.17
24740;BMP280;45234;48.148;17.128;2023-03-29T03:59:52;100733.88;;;2.27
24740;BMP280;45234;48.148;17.128;2023-03-29T04:02:25;100731.75;;;2.32
24740;BMP280;45234;48.148;17.128;2023-03-29T04:04:54;100715.94;;;2.38
24740;BMP280;45234;48.148;17.128;2023-03-29T04:07:29;100723.16;;;2.44
24740;BMP280;45234;48.148;17.128;2023-03-29T04:10:19;100724.56;;;2.48
24740;BMP280;45234;48.148;17.128;2023-03-29T04:12:53;100723.38;;;2.52
24740;BMP280;45234;48.148;17.128;2023-03-29T04:15:20;100718.06;;;2.55
24740;BMP280;45234;48.148;17.128;2023-03-29T04:17:58;100722.13;;;2.58
24740;BMP280;45234;48.148;17.128;2023-03-29T04:20:32;100720.25;;;2.60
24740;BMP280;45234;48.148;17.128;2023-03-29T04:22:59;100719.44;;;2.59
24740;BMP280;45234;48.148;17.128;2023-03-29T04:25:28;100712.69;;;2.58
24740;BMP280;45234;48.148;17.128;2023-03-29T04:27:57;100717.81;;;2.58
24740;BMP280;45234;48.148;17.128;2023-03-29T04:30:47;100717.56;;;2.61
24740;BMP280;45234;48.148;17.128;2023-03-29T04:33:32;100711.97;;;2.67
24740;BMP280;45234;48.148;17.128;2023-03-29T04:36:00;100719.84;;;2.76
24740;BMP280;45234;48.148;17.128;2023-03-29T04:38:29;100708.00;;;2.75
24740;BMP280;45234;48.148;17.128;2023-03-29T04:40:56;100722.88;;;2.81
24740;BMP280;45234;48.148;17.128;2023-03-29T04:43:47;100726.38;;;2.80
24740;BMP280;45234;48.148;17.128;2023-03-29T04:46:22;100726.38;;;2.80
24740;BMP280;45234;48.148;17.128;2023-03-29T04:49:10;100724.50;;;2.82
24740;BMP280;45234;48.148;17.128;2023-03-29T04:51:40;100727.88;;;2.82
24740;BMP280;45234;48.148;17.128;2023-03-29T04:54:09;100720.88;;;2.84
24740;BMP280;45234;48.148;17.128;2023-03-29T04:56:59;100729.38;;;2.85
24740;BMP280;45234;48.148;17.128;2023-03-29T04:59:55;100728.56;;;2.84
24740;BMP280;45234;48.148;17.128;2023-03-29T05:02:44;100719.84;;;2.87
24740;BMP280;45234;48.148;17.128;2023-03-29T05:05:13;100724.63;;;2.91
24740;BMP280;45234;48.148;17.128;2023-03-29T05:07:44;100722.38;;;2.98
24740;BMP280;45234;48.148;17.128;2023-03-29T05:10:13;100705.69;;;3.04
24740;BMP280;45234;48.148;17.128;2023-03-29T05:12:40;100712.19;;;3.19
24740;BMP280;45234;48.148;17.128;2023-03-29T05:15:08;100711.88;;;3.54
24740;BMP280;45234;48.148;17.128;2023-03-29T05:17:35;100705.38;;;3.71
24740;BMP280;45234;48.148;17.128;2023-03-29T05:20:08;100705.28;;;3.82
24740;BMP280;45234;48.148;17.128;2023-03-29T05:22:36;100708.63;;;3.94
24740;BMP280;45234;48.148;17.128;2023-03-29T05:25:07;100704.22;;;4.05
24740;BMP280;45234;48.148;17.128;2023-03-29T05:27:34;100715.78;;;4.30
24740;BMP280;45234;48.148;17.128;2023-03-29T05:30:07;100712.81;;;4.44
24740;BMP280;45234;48.148;17.128;2023-03-29T05:33:10;100708.13;;;4.49
24740;BMP280;45234;48.148;17.128;2023-03-29T05:35:37;100705.84;;;4.66
24740;BMP280;45234;48.148;17.128;2023-03-29T05:38:06;100704.13;;;4.86
24740;BMP280;45234;48.148;17.128;2023-03-29T05:40:34;100709.91;;;4.97
24740;BMP280;45234;48.148;17.128;2023-03-29T05:43:20;100716.16;;;5.04
24740;BMP280;45234;48.148;17.128;2023-03-29T05:45:47;100718.03;;;5.12
24740;BMP280;45234;48.148;17.128;2023-03-29T05:48:14;100712.63;;;5.15
24740;BMP280;45234;48.148;17.128;2023-03-29T05:50:46;100721.44;;;5.13
24740;BMP280;45234;48.148;17.128;2023-03-29T05:53:15;100726.72;;;5.21
24740;BMP280;45234;48.148;17.128;2023-03-29T05:55:42;100729.13;;;5.32
24740;BMP280;45234;48.148;17.128;2023-03-29T05:58:12;100723.44;;;5.38
24740;BMP280;45234;48.148;17.128;2023-03-29T06:00:41;100727.88;;;5.46
24740;BMP280;45234;48.148;17.128;2023-03-29T06:03:24;100724.16;;;5.21
24740;BMP280;45234;48.148;17.128;2023-03-29T06:06:01;100739.66;;;5.48
24740;BMP280;45234;48.148;17.128;2023-03-29T06:08:37;100735.19;;;5.50
24740;BMP280;45234;48.148;17.128;2023-03-29T06:11:35;100737.53;;;5.44
24740;BMP280;45234;48.148;17.128;2023-03-29T06:14:09;100739.50;;;5.50
24740;BMP280;45234;48.148;17.128;2023-03-29T06:16:44;100736.63;;;5.62
24740;BMP280;45234;48.148;17.128;2023-03-29T06:19:13;100738.00;;;5.66
24740;BMP280;45234;48.148;17.128;2023-03-29T06:21:40;100743.63;;;5.80
24740;BMP280;45234;48.148;17.128;2023-03-29T06:24:10;100735.59;;;5.92
24740;BMP280;45234;48.148;17.128;2023-03-29T06:26:43;100737.84;;;6.05
24740;BMP280;45234;48.148;17.128;2023-03-29T06:29:10;100739.16;;;6.19
24740;BMP280;45234;48.148;17.128;2023-03-29T06:31:39;100745.25;;;6.27
24740;BMP280;45234;48.148;17.128;2023-03-29T06:34:17;100745.03;;;6.39
24740;BMP280;45234;48.148;17.128;2023-03-29T06:37:01;100753.59;;;6.57
24740;BMP280;45234;48.148;17.128;2023-03-29T06:39:29;100756.03;;;6.76
24740;BMP280;45234;48.148;17.128;2023-03-29T06:42:21;100747.66;;;6.92
24740;BMP280;45234;48.148;17.128;2023-03-29T06:45:07;100754.31;;;7.38
24740;BMP280;45234;48.148;17.128;2023-03-29T06:47:35;100753.53;;;7.72
24740;BMP280;45234;48.148;17.128;2023-03-29T06:50:02;100750.13;;;7.97
24740;BMP280;45234;48.148;17.128;2023-03-29T06:52:41;100753.41;;;8.15
24740;BMP280;45234;48.148;17.128;2023-03-29T06:55:09;100750.25;;;8.29
24740;BMP280;45234;48.148;17.128;2023-03-29T06:57:39;100745.44;;;8.43
24740;BMP280;45234;48.148;17.128;2023-03-29T07:00:06;100748.19;;;8.57
24740;BMP280;45234;48.148;17.128;2023-03-29T07:03:05;100758.69;;;8.64
24740;BMP280;45234;48.148;17.128;2023-03-29T07:05:33;100753.38;;;8.74
24740;BMP280;45234;48.148;17.128;2023-03-29T07:08:06;100765.00;;;8.78
24740;BMP280;45234;48.148;17.128;2023-03-29T07:10:47;100762.56;;;8.60
24740;BMP280;45234;48.148;17.128;2023-03-29T07:13:18;100757.72;;;8.41
24740;BMP280;45234;48.148;17.128;2023-03-29T07:15:47;100753.84;;;8.53
24740;BMP280;45234;48.148;17.128;2023-03-29T07:18:20;100757.06;;;8.55
24740;BMP280;45234;48.148;17.128;2023-03-29T07:20:47;100767.09;;;8.66
24740;BMP280;45234;48.148;17.128;2023-03-29T07:23:15;100757.38;;;8.60
24740;BMP280;45234;48.148;17.128;2023-03-29T07:25:43;100758.53;;;8.66
24740;BMP280;45234;48.148;17.128;2023-03-29T07:28:10;100759.69;;;8.87
24740;BMP280;45234;48.148;17.128;2023-03-29T07:30:37;100756.78;;;8.90
24740;BMP280;45234;48.148;17.128;2023-03-29T07:33:14;100765.19;;;9.17
24740;BMP280;45234;48.148;17.128;2023-03-29T07:35:50;100759.44;;;9.62
24740;BMP280;45234;48.148;17.128;2023-03-29T07:38:17;100765.19;;;9.88
24740;BMP280;45234;48.148;17.128;2023-03-29T07:40:48;100760.53;;;10.07
24740;BMP280;45234;48.148;17.128;2023-03-29T07:43:35;100764.38;;;10.19
24740;BMP280;45234;48.148;17.128;2023-03-29T07:46:03;100767.44;;;10.22
24740;BMP280;45234;48.148;17.128;2023-03-29T07:48:33;100767.31;;;10.16
24740;BMP280;45234;48.148;17.128;2023-03-29T07:51:05;100769.25;;;10.14
24740;BMP280;45234;48.148;17.128;2023-03-29T07:53:44;100767.53;;;10.29
24740;BMP280;45234;48.148;17.128;2023-03-29T07:56:29;100762.94;;;10.16
24740;BMP280;45234;48.148;17.128;2023-03-29T07:59:08;100755.97;;;10.17
24740;BMP280;45234;48.148;17.128;2023-03-29T08:01:36;100753.72;;;10.14
24740;BMP280;45234;48.148;17.128;2023-03-29T08:04:03;100746.38;;;10.25
24740;BMP280;45234;48.148;17.128;2023-03-29T08:06:52;100741.88;;;10.19
24740;BMP280;45234;48.148;17.128;2023-03-29T08:09:23;100741.00;;;9.96
24740;BMP280;45234;48.148;17.128;2023-03-29T08:11:50;100747.50;;;10.00
24740;BMP280;45234;48.148;17.128;2023-03-29T08:14:24;100744.66;;;9.07
24740;BMP280;45234;48.148;17.128;2023-03-29T08:16:57;100741.41;;;9.21
24740;BMP280;45234;48.148;17.128;2023-03-29T08:19:24;100729.91;;;9.40
24740;BMP280;45234;48.148;17.128;2023-03-29T08:22:01;100736.59;;;9.74
24740;BMP280;45234;48.148;17.128;2023-03-29T08:24:41;100734.09;;;10.19
24740;BMP280;45234;48.148;17.128;2023-03-29T08:27:09;100738.50;;;10.79
24740;BMP280;45234;48.148;17.128;2023-03-29T08:29:35;100736.19;;;11.22
24740;BMP280;45234;48.148;17.128;2023-03-29T08:32:02;100735.63;;;11.41
24740;BMP280;45234;48.148;17.128;2023-03-29T08:34:30;100732.59;;;11.52
24740;BMP280;45234;48.148;17.128;2023-03-29T08:37:13;100728.88;;;11.91
24740;BMP280;45234;48.148;17.128;2023-03-29T08:39:44;100726.00;;;12.07
24740;BMP280;45234;48.148;17.128;2023-03-29T08:45:29;100720.22;;;12.26
24740;BMP280;45234;48.148;17.128;2023-03-29T08:50:40;100715.38;;;12.45
24740;BMP280;45234;48.148;17.128;2023-03-29T08:53:19;100710.25;;;12.30
24740;BMP280;45234;48.148;17.128;2023-03-29T08:56:06;100701.13;;;12.13
24740;BMP280;45234;48.148;17.128;2023-03-29T08:59:00;100700.59;;;12.03
24740;BMP280;45234;48.148;17.128;2023-03-29T09:01:34;100700.53;;;11.96
24740;BMP280;45234;48.148;17.128;2023-03-29T09:04:16;100701.75;;;11.79
24740;BMP280;45234;48.148;17.128;2023-03-29T09:07:07;100708.28;;;11.75
24740;BMP280;45234;48.148;17.128;2023-03-29T09:09:41;100705.19;;;11.86
24740;BMP280;45234;48.148;17.128;2023-03-29T09:12:47;100699.78;;;11.81
24740;BMP280;45234;48.148;17.128;2023-03-29T09:15:33;100704.50;;;11.92
24740;BMP280;45234;48.148;17.128;2023-03-29T09:18:28;100700.31;;;11.91
24740;BMP280;45234;48.148;17.128;2023-03-29T09:21:09;100695.84;;;12.06
24740;BMP280;45234;48.148;17.128;2023-03-29T09:23:54;100690.41;;;12.22
24740;BMP280;45234;48.148;17.128;2023-03-29T09:29:37;100688.63;;;12.51
24740;BMP280;45234;48.148;17.128;2023-03-29T09:32:25;100694.75;;;12.71
24740;BMP280;45234;48.148;17.128;2023-03-29T09:35:07;100691.66;;;12.82
24740;BMP280;45234;48.148;17.128;2023-03-29T09:37:39;100693.22;;;12.83
24740;BMP280;45234;48.148;17.128;2023-03-29T09:40:25;100684.09;;;12.87
24740;BMP280;45234;48.148;17.128;2023-03-29T09:43:06;100687.69;;;12.86
24740;BMP280;45234;48.148;17.128;2023-03-29T09:45:36;100686.88;;;12.86
24740;BMP280;45234;48.148;17.128;2023-03-29T09:48:15;100688.50;;;12.93
24740;BMP280;45234;48.148;17.128;2023-03-29T09:50:49;100690.34;;;12.99
24740;BMP280;45234;48.148;17.128;2023-03-29T09:53:19;100681.41;;;13.09
24740;BMP280;45234;48.148;17.128;2023-03-29T09:56:01;100682.00;;;13.11
24740;BMP280;45234;48.148;17.128;2023-03-29T09:58:42;100671.19;;;13.14
24740;BMP280;45234;48.148;17.128;2023-03-29T10:01:13;100668.28;;;13.36
24740;BMP280;45234;48.148;17.128;2023-03-29T10:03:46;100666.75;;;13.68
24740;BMP280;45234;48.148;17.128;2023-03-29T10:06:15;100672.81;;;13.82
24740;BMP280;45234;48.148;17.128;2023-03-29T10:08:52;100670.41;;;13.81
24740;BMP280;45234;48.148;17.128;2023-03-29T10:11:29;100667.59;;;13.82
24740;BMP280;45234;48.148;17.128;2023-03-29T10:14:15;100661.19;;;13.71
24740;BMP280;45234;48.148;17.128;2023-03-29T10:16:43;100663.94;;;13.57
24740;BMP280;45234;48.148;17.128;2023-03-29T10:21:54;100654.72;;;13.54
24740;BMP280;45234;48.148;17.128;2023-03-29T10:24:25;100649.50;;;13.41
24740;BMP280;45234;48.148;17.128;2023-03-29T10:27:00;100643.09;;;13.50
24740;BMP280;45234;48.148;17.128;2023-03-29T10:29:39;100649.69;;;13.46
24740;BMP280;45234;48.148;17.128;2023-03-29T10:32:16;100643.66;;;13.46
24740;BMP280;45234;48.148;17.128;2023-03-29T10:34:45;100635.84;;;13.46
24740;BMP280;45234;48.148;17.128;2023-03-29T10:37:13;100641.88;;;13.46
24740;BMP280;45234;48.148;17.128;2023-03-29T10:39:45;100639.66;;;13.43
24740;BMP280;45234;48.148;17.128;2023-03-29T10:42:15;100637.88;;;13.50
24740;BMP280;45234;48.148;17.128;2023-03-29T10:44:42;100626.31;;;13.59
24740;BMP280;45234;48.148;17.128;2023-03-29T10:47:19;100628.69;;;13.67
24740;BMP280;45234;48.148;17.128;2023-03-29T10:49:52;100634.31;;;13.64
24740;BMP280;45234;48.148;17.128;2023-03-29T10:52:22;100623.03;;;13.44
24740;BMP280;45234;48.148;17.128;2023-03-29T10:54:51;100619.75;;;13.09
24740;BMP280;45234;48.148;17.128;2023-03-29T10:57:46;100623.13;;;12.69
24740;BMP280;45234;48.148;17.128;2023-03-29T11:00:16;100618.00;;;12.75
24740;BMP280;45234;48.148;17.128;2023-03-29T11:05:41;100612.75;;;13.10
24740;BMP280;45234;48.148;17.128;2023-03-29T11:08:40;100607.34;;;13.18
24740;BMP280;45234;48.148;17.128;2023-03-29T11:11:33;100602.75;;;13.20
24740;BMP280;45234;48.148;17.128;2023-03-29T11:14:26;100585.38;;;13.40
24740;BMP280;45234;48.148;17.128;2023-03-29T11:17:20;100586.97;;;13.34
24740;BMP280;45234;48.148;17.128;2023-03-29T11:28:21;100566.19;;;13.54
24740;BMP280;45234;48.148;17.128;2023-03-29T11:31:23;100566.56;;;13.51
24740;BMP280;45234;48.148;17.128;2023-03-29T11:36:57;100561.16;;;13.66
24740;BMP280;45234;48.148;17.128;2023-03-29T11:42:06;100562.19;;;13.85
24740;BMP280;45234;48.148;17.128;2023-03-29T11:44:34;100559.75;;;14.03
24740;BMP280;45234;48.148;17.128;2023-03-29T11:47:08;100558.97;;;14.02
24740;BMP280;45234;48.148;17.128;2023-03-29T11:49:45;100562.09;;;14.37
24740;BMP280;45234;48.148;17.128;2023-03-29T11:52:50;100549.34;;;14.67
24740;BMP280;45234;48.148;17.128;2023-03-29T11:55:21;100555.16;;;14.76
24740;BMP280;45234;48.148;17.128;2023-03-29T12:00:53;100556.47;;;14.40
24740;BMP280;45234;48.148;17.128;2023-03-29T12:03:54;100555.34;;;14.23
24740;BMP280;45234;48.148;17.128;2023-03-29T12:06:34;100553.69;;;14.22
24740;BMP280;45234;48.148;17.128;2023-03-29T12:09:06;100549.84;;;14.31
24740;BMP280;45234;48.148;17.128;2023-03-29T12:11:41;100554.16;;;13.80
24740;BMP280;45234;48.148;17.128;2023-03-29T12:14:48;100544.28;;;14.08
24740;BMP280;45234;48.148;17.128;2023-03-29T12:17:23;100549.06;;;14.37
24740;BMP280;45234;48.148;17.128;2023-03-29T12:20:22;100550.13;;;14.23
24740;BMP280;45234;48.148;17.128;2023-03-29T12:22:53;100551.09;;;14.29
24740;BMP280;45234;48.148;17.128;2023-03-29T12:25:36;100550.31;;;14.08
24740;BMP280;45234;48.148;17.128;2023-03-29T12:39:23;100538.53;;;13.80
24740;BMP280;45234;48.148;17.128;2023-03-29T12:42:19;100526.50;;;13.65
24740;BMP280;45234;48.148;17.128;2023-03-29T12:45:44;100531.53;;;13.60
24740;BMP280;45234;48.148;17.128;2023-03-29T12:48:26;100519.69;;;13.51
24740;BMP280;45234;48.148;17.128;2023-03-29T12:50:58;100516.47;;;13.62
24740;BMP280;45234;48.148;17.128;2023-03-29T12:53:34;100519.91;;;13.69
24740;BMP280;45234;48.148;17.128;2023-03-29T13:01:08;100517.69;;;13.80
24740;BMP280;45234;48.148;17.128;2023-03-29T13:06:08;100514.47;;;13.58
24740;BMP280;45234;48.148;17.128;2023-03-29T13:08:36;100510.88;;;13.65
24740;BMP280;45234;48.148;17.128;2023-03-29T13:11:05;100504.88;;;13.71
24740;BMP280;45234;48.148;17.128;2023-03-29T13:13:35;100511.25;;;13.76
24740;BMP280;45234;48.148;17.128;2023-03-29T13:16:19;100505.25;;;13.55
24740;BMP280;45234;48.148;17.128;2023-03-29T13:19:05;100501.06;;;13.41
24740;BMP280;45234;48.148;17.128;2023-03-29T13:28:23;100505.25;;;12.61
24740;BMP280;45234;48.148;17.128;2023-03-29T13:33:42;100500.25;;;12.60
24740;BMP280;45234;48.148;17.128;2023-03-29T13:39:04;100497.44;;;12.55
24740;BMP280;45234;48.148;17.128;2023-03-29T13:43:59;100487.72;;;12.36
24740;BMP280;45234;48.148;17.128;2023-03-29T13:46:40;100490.03;;;12.17
24740;BMP280;45234;48.148;17.128;2023-03-29T13:49:25;100479.75;;;12.03
24740;BMP280;45234;48.148;17.128;2023-03-29T13:54:46;100476.47;;;12.28
24740;BMP280;45234;48.148;17.128;2023-03-29T13:57:20;100477.94;;;12.38
24740;BMP280;45234;48.148;17.128;2023-03-29T14:02:54;100474.53;;;12.37
24740;BMP280;45234;48.148;17.128;2023-03-29T14:05:33;100485.22;;;12.14
24740;BMP280;45234;48.148;17.128;2023-03-29T14:08:24;100474.53;;;12.37
24740;BMP280;45234;48.148;17.128;2023-03-29T14:10:53;100470.28;;;12.29
24740;BMP280;45234;48.148;17.128;2023-03-29T14:13:22;100471.75;;;12.39
24740;BMP280;45234;48.148;17.128;2023-03-29T14:15:55;100463.09;;;12.31
24740;BMP280;45234;48.148;17.128;2023-03-29T14:18:33;100461.34;;;12.32
24740;BMP280;45234;48.148;17.128;2023-03-29T14:21:02;100462.38;;;12.51
24740;BMP280;45234;48.148;17.128;2023-03-29T14:23:31;100466.59;;;12.52
24740;BMP280;45234;48.148;17.128;2023-03-29T14:28:44;100462.16;;;12.39
24740;BMP280;45234;48.148;17.128;2023-03-29T14:31:25;100452.34;;;12.35
24740;BMP280;45234;48.148;17.128;2023-03-29T14:33:56;100466.38;;;12.06
24740;BMP280;45234;48.148;17.128;2023-03-29T14:36:28;100459.34;;;12.41
24740;BMP280;45234;48.148;17.128;2023-03-29T14:38:57;100457.38;;;12.43
24740;BMP280;45234;48.148;17.128;2023-03-29T14:41:34;100455.69;;;12.28
24740;BMP280;45234;48.148;17.128;2023-03-29T14:44:06;100452.09;;;12.29
24740;BMP280;45234;48.148;17.128;2023-03-29T14:46:33;100455.44;;;12.17
24740;BMP280;45234;48.148;17.128;2023-03-29T14:49:02;100450.63;;;12.14
24740;BMP280;45234;48.148;17.128;2023-03-29T14:51:30;100458.50;;;12.27
24740;BMP280;45234;48.148;17.128;2023-03-29T14:53:59;100445.91;;;12.30
24740;BMP280;45234;48.148;17.128;2023-03-29T14:56:27;100447.50;;;12.31
24740;BMP280;45234;48.148;17.128;2023-03-29T14:58:55;100442.16;;;12.33
24740;BMP280;45234;48.148;17.128;2023-03-29T15:01:24;100450.06;;;12.18
24740;BMP280;45234;48.148;17.128;2023-03-29T15:04:00;100439.88;;;11.89
24740;BMP280;45234;48.148;17.128;2023-03-29T15:06:31;100442.41;;;11.76
24740;BMP280;45234;48.148;17.128;2023-03-29T15:09:03;100441.28;;;11.63
24740;BMP280;45234;48.148;17.128;2023-03-29T15:11:33;100436.63;;;11.52
24740;BMP280;45234;48.148;17.128;2023-03-29T15:16:28;100429.34;;;11.20
24740;BMP280;45234;48.148;17.128;2023-03-29T15:18:56;100435.94;;;11.16
24740;BMP280;45234;48.148;17.128;2023-03-29T15:21:28;100433.16;;;11.03
24740;BMP280;45234;48.148;17.128;2023-03-29T15:23:58;100426.66;;;10.85
24740;BMP280;45234;48.148;17.128;2023-03-29T15:26:31;100423.84;;;10.72
24740;BMP280;45234;48.148;17.128;2023-03-29T15:29:19;100428.72;;;10.60
24740;BMP280;45234;48.148;17.128;2023-03-29T15:31:57;100419.38;;;10.45
24740;BMP280;45234;48.148;17.128;2023-03-29T15:34:29;100415.19;;;10.44
24740;BMP280;45234;48.148;17.128;2023-03-29T15:36:57;100410.50;;;10.39
24740;BMP280;45234;48.148;17.128;2023-03-29T15:39:26;100410.50;;;10.39
24740;BMP280;45234;48.148;17.128;2023-03-29T15:41:54;100405.41;;;10.46
24740;BMP280;45234;48.148;17.128;2023-03-29T15:44:32;100406.13;;;10.40
24740;BMP280;45234;48.148;17.128;2023-03-29T15:46:59;100407.78;;;10.41
24740;BMP280;45234;48.148;17.128;2023-03-29T15:49:26;100411.31;;;10.40
24740;BMP280;45234;48.148;17.128;2023-03-29T15:51:53;100400.16;;;10.39
24740;BMP280;45234;48.148;17.128;2023-03-29T15:54:21;100397.41;;;10.41
24740;BMP280;45234;48.148;17.128;2023-03-29T15:56:55;100388.13;;;10.32